sensor_id;sensor_type;location;lat;lon;timestamp;pressure;altitude;pressure_sealevel;temperature;humidity
50774;BME280;36745;48.544;8.918;2023-08-07T00:00:56;97267.34;;;12.13;96.08
50774;BME280;36745;48.544;8.918;2023-08-07T00:04:14;97271.00;;;12.10;96.11
50774;BME280;36745;48.544;8.918;2023-08-07T00:07:34;97275.28;;;12.11;95.86
50774;BME280;36745;48.544;8.918;2023-08-07T00:10:52;97270.03;;;12.04;95.65
50774;BME280;36745;48.544;8.918;2023-08-07T00:14:11;97280.44;;;12.00;95.77
50774;BME280;36745;48.544;8.918;2023-08-07T00:17:30;97271.84;;;11.98;96.23
50774;BME280;36745;48.544;8.918;2023-08-07T00:20:49;97276.47;;;12.01;95.73
50774;BME280;36745;48.544;8.918;2023-08-07T00:24:08;97278.91;;;11.99;95.78
50774;BME280;36745;48.544;8.918;2023-08-07T00:27:27;97278.78;;;12.03;95.79
50774;BME280;36745;48.544;8.918;2023-08-07T00:30:46;97273.38;;;11.99;95.72
50774;BME280;36745;48.544;8.918;2023-08-07T00:34:05;97278.25;;;11.95;95.96
50774;BME280;36745;48.544;8.918;2023-08-07T00:37:24;97277.38;;;11.98;95.96
50774;BME280;36745;48.544;8.918;2023-08-07T00:40:43;97279.19;;;11.92;96.06
50774;BME280;36745;48.544;8.918;2023-08-07T00:44:02;97288.53;;;11.95;96.28
50774;BME280;36745;48.544;8.918;2023-08-07T00:47:20;97276.09;;;11.90;95.87
50774;BME280;36745;48.544;8.918;2023-08-07T00:50:41;97277.00;;;11.87;96.30
50774;BME280;36745;48.544;8.918;2023-08-07T00:54:02;97281.84;;;11.83;96.49
50774;BME280;36745;48.544;8.918;2023-08-07T00:57:22;97277.09;;;11.84;96.76
50774;BME280;36745;48.544;8.918;2023-08-07T01:00:41;97281.22;;;11.79;96.41
50774;BME280;36745;48.544;8.918;2023-08-07T01:04:01;97280.94;;;11.64;96.94
50774;BME280;36745;48.544;8.918;2023-08-07T01:07:20;97286.31;;;11.68;97.50
50774;BME280;36745;48.544;8.918;2023-08-07T01:11:06;97283.69;;;11.64;97.26
50774;BME280;36745;48.544;8.918;2023-08-07T01:14:46;97285.25;;;11.65;97.15
50774;BME280;36745;48.544;8.918;2023-08-07T01:18:07;97286.25;;;11.59;97.19
50774;BME280;36745;48.544;8.918;2023-08-07T01:21:27;97294.56;;;11.46;97.74
50774;BME280;36745;48.544;8.918;2023-08-07T01:24:50;97296.16;;;11.34;97.81
50774;BME280;36745;48.544;8.918;2023-08-07T01:28:17;97295.00;;;11.45;97.43
50774;BME280;36745;48.544;8.918;2023-08-07T01:31:39;97296.03;;;11.38;97.46
50774;BME280;36745;48.544;8.918;2023-08-07T01:35:01;97302.34;;;11.39;97.62
50774;BME280;36745;48.544;8.918;2023-08-07T01:38:23;97300.78;;;11.38;97.75
50774;BME280;36745;48.544;8.918;2023-08-07T01:41:43;97312.91;;;11.40;97.63
50774;BME280;36745;48.544;8.918;2023-08-07T01:45:04;97303.84;;;11.40;97.64
50774;BME280;36745;48.544;8.918;2023-08-07T01:48:23;97295.78;;;11.45;97.48
50774;BME280;36745;48.544;8.918;2023-08-07T01:51:42;97301.09;;;11.40;97.80
50774;BME280;36745;48.544;8.918;2023-08-07T01:55:01;97304.75;;;11.36;98.38
50774;BME280;36745;48.544;8.918;2023-08-07T01:58:20;97309.38;;;11.40;98.16
50774;BME280;36745;48.544;8.918;2023-08-07T02:01:38;97319.78;;;11.35;98.11
50774;BME280;36745;48.544;8.918;2023-08-07T02:04:57;97320.22;;;11.34;97.97
50774;BME280;36745;48.544;8.918;2023-08-07T02:08:16;97325.66;;;11.25;98.30
50774;BME280;36745;48.544;8.918;2023-08-07T02:11:36;97321.13;;;11.18;98.29
50774;BME280;36745;48.544;8.918;2023-08-07T02:14:55;97324.88;;;11.24;98.87
50774;BME280;36745;48.544;8.918;2023-08-07T02:18:14;97324.00;;;11.27;98.72
50774;BME280;36745;48.544;8.918;2023-08-07T02:21:33;97322.09;;;11.37;98.73
50774;BME280;36745;48.544;8.918;2023-08-07T02:24:52;97326.84;;;11.36;99.12
50774;BME280;36745;48.544;8.918;2023-08-07T02:28:11;97329.69;;;11.46;99.40
50774;BME280;36745;48.544;8.918;2023-08-07T02:31:30;97333.34;;;11.43;98.38
50774;BME280;36745;48.544;8.918;2023-08-07T02:34:49;97332.78;;;11.35;97.87
50774;BME280;36745;48.544;8.918;2023-08-07T02:38:08;97329.25;;;11.34;97.93
50774;BME280;36745;48.544;8.918;2023-08-07T02:41:27;97334.00;;;11.34;98.02
50774;BME280;36745;48.544;8.918;2023-08-07T02:44:46;97332.03;;;11.34;97.30
50774;BME280;36745;48.544;8.918;2023-08-07T02:48:05;97326.06;;;11.23;97.12
50774;BME280;36745;48.544;8.918;2023-08-07T02:51:24;97337.88;;;11.36;97.04
50774;BME280;36745;48.544;8.918;2023-08-07T02:54:43;97338.09;;;11.29;96.54
50774;BME280;36745;48.544;8.918;2023-08-07T02:58:02;97334.78;;;11.34;96.85
50774;BME280;36745;48.544;8.918;2023-08-07T03:01:21;97334.22;;;11.40;96.25
50774;BME280;36745;48.544;8.918;2023-08-07T03:04:40;97339.44;;;11.38;95.80
50774;BME280;36745;48.544;8.918;2023-08-07T03:07:59;97341.06;;;11.35;95.59
50774;BME280;36745;48.544;8.918;2023-08-07T03:11:18;97342.97;;;11.25;95.58
50774;BME280;36745;48.544;8.918;2023-08-07T03:14:37;97335.13;;;11.24;95.31
50774;BME280;36745;48.544;8.918;2023-08-07T03:17:56;97344.75;;;11.19;95.17
50774;BME280;36745;48.544;8.918;2023-08-07T03:21:15;97346.28;;;11.20;95.33
50774;BME280;36745;48.544;8.918;2023-08-07T03:24:34;97344.44;;;11.17;94.90
50774;BME280;36745;48.544;8.918;2023-08-07T03:27:53;97344.09;;;11.15;94.75
50774;BME280;36745;48.544;8.918;2023-08-07T03:31:12;97359.09;;;11.14;94.85
50774;BME280;36745;48.544;8.918;2023-08-07T03:34:31;97354.03;;;11.00;94.25
50774;BME280;36745;48.544;8.918;2023-08-07T03:37:50;97358.00;;;10.99;95.21
50774;BME280;36745;48.544;8.918;2023-08-07T03:41:09;97367.28;;;11.05;95.08
50774;BME280;36745;48.544;8.918;2023-08-07T03:44:28;97359.56;;;11.00;95.64
50774;BME280;36745;48.544;8.918;2023-08-07T03:47:47;97360.44;;;10.97;95.75
50774;BME280;36745;48.544;8.918;2023-08-07T03:51:06;97353.38;;;10.96;95.78
50774;BME280;36745;48.544;8.918;2023-08-07T03:54:29;97348.97;;;10.86;96.14
50774;BME280;36745;48.544;8.918;2023-08-07T03:57:48;97351.94;;;10.79;95.44
50774;BME280;36745;48.544;8.918;2023-08-07T04:01:07;97366.59;;;10.63;95.78
50774;BME280;36745;48.544;8.918;2023-08-07T04:04:26;97361.53;;;10.62;96.05
50774;BME280;36745;48.544;8.918;2023-08-07T04:07:45;97369.69;;;10.52;96.13
50774;BME280;36745;48.544;8.918;2023-08-07T04:11:04;97363.94;;;10.60;96.29
50774;BME280;36745;48.544;8.918;2023-08-07T04:14:23;97360.53;;;10.56;96.63
50774;BME280;36745;48.544;8.918;2023-08-07T04:17:42;97353.47;;;10.55;96.77
50774;BME280;36745;48.544;8.918;2023-08-07T04:21:01;97358.44;;;10.60;97.21
50774;BME280;36745;48.544;8.918;2023-08-07T04:24:20;97353.69;;;10.60;97.24
50774;BME280;36745;48.544;8.918;2023-08-07T04:27:39;97352.69;;;10.54;97.13
50774;BME280;36745;48.544;8.918;2023-08-07T04:30:58;97360.19;;;10.53;97.72
50774;BME280;36745;48.544;8.918;2023-08-07T04:34:17;97362.81;;;10.44;97.31
50774;BME280;36745;48.544;8.918;2023-08-07T04:37:36;97365.03;;;10.49;97.94
50774;BME280;36745;48.544;8.918;2023-08-07T04:40:55;97359.31;;;10.57;97.69
50774;BME280;36745;48.544;8.918;2023-08-07T04:44:14;97368.78;;;10.56;97.79
50774;BME280;36745;48.544;8.918;2023-08-07T04:47:33;97368.56;;;10.50;97.67
50774;BME280;36745;48.544;8.918;2023-08-07T04:50:52;97366.69;;;10.47;97.84
50774;BME280;36745;48.544;8.918;2023-08-07T04:54:11;97364.44;;;10.42;97.97
50774;BME280;36745;48.544;8.918;2023-08-07T04:57:30;97369.75;;;10.49;98.47
50774;BME280;36745;48.544;8.918;2023-08-07T05:00:57;97377.06;;;10.56;98.24
50774;BME280;36745;48.544;8.918;2023-08-07T05:04:15;97385.34;;;10.56;98.19
50774;BME280;36745;48.544;8.918;2023-08-07T05:07:34;97378.06;;;10.62;98.31
50774;BME280;36745;48.544;8.918;2023-08-07T05:10:53;97384.16;;;10.82;98.65
50774;BME280;36745;48.544;8.918;2023-08-07T05:14:12;97384.16;;;10.94;98.15
50774;BME280;36745;48.544;8.918;2023-08-07T05:17:32;97384.28;;;11.04;97.93
50774;BME280;36745;48.544;8.918;2023-08-07T05:20:51;97382.38;;;11.13;98.28
50774;BME280;36745;48.544;8.918;2023-08-07T05:24:09;97389.00;;;11.28;98.58
50774;BME280;36745;48.544;8.918;2023-08-07T05:27:28;97377.81;;;11.45;98.38
50774;BME280;36745;48.544;8.918;2023-08-07T05:30:47;97386.09;;;11.57;97.99
50774;BME280;36745;48.544;8.918;2023-08-07T05:34:06;97380.91;;;11.59;97.62
50774;BME280;36745;48.544;8.918;2023-08-07T05:37:25;97384.38;;;11.85;98.60
50774;BME280;36745;48.544;8.918;2023-08-07T05:40:45;97381.44;;;12.01;97.65
50774;BME280;36745;48.544;8.918;2023-08-07T05:44:04;97385.81;;;12.11;97.21
50774;BME280;36745;48.544;8.918;2023-08-07T05:47:24;97386.75;;;12.08;96.33
50774;BME280;36745;48.544;8.918;2023-08-07T05:50:44;97389.16;;;12.06;96.04
50774;BME280;36745;48.544;8.918;2023-08-07T05:54:03;97402.53;;;12.08;96.00
50774;BME280;36745;48.544;8.918;2023-08-07T05:57:22;97401.19;;;12.12;95.79
50774;BME280;36745;48.544;8.918;2023-08-07T06:00:41;97399.97;;;12.13;95.70
50774;BME280;36745;48.544;8.918;2023-08-07T06:04:00;97402.81;;;12.23;96.14
50774;BME280;36745;48.544;8.918;2023-08-07T06:07:19;97408.09;;;12.30;95.82
50774;BME280;36745;48.544;8.918;2023-08-07T06:10:38;97405.97;;;12.34;96.10
50774;BME280;36745;48.544;8.918;2023-08-07T06:13:57;97409.63;;;12.31;95.33
50774;BME280;36745;48.544;8.918;2023-08-07T06:17:16;97395.09;;;12.39;95.83
50774;BME280;36745;48.544;8.918;2023-08-07T06:20:35;97404.38;;;12.45;95.66
50774;BME280;36745;48.544;8.918;2023-08-07T06:23:54;97407.31;;;12.51;95.29
50774;BME280;36745;48.544;8.918;2023-08-07T06:27:13;97407.00;;;12.49;95.07
50774;BME280;36745;48.544;8.918;2023-08-07T06:30:31;97408.53;;;12.50;94.93
50774;BME280;36745;48.544;8.918;2023-08-07T06:33:50;97406.72;;;12.56;94.53
50774;BME280;36745;48.544;8.918;2023-08-07T06:37:09;97416.00;;;12.62;95.07
50774;BME280;36745;48.544;8.918;2023-08-07T06:40:28;97423.13;;;12.72;94.79
50774;BME280;36745;48.544;8.918;2023-08-07T06:43:47;97422.88;;;12.79;95.03
50774;BME280;36745;48.544;8.918;2023-08-07T06:47:06;97428.13;;;12.86;94.67
50774;BME280;36745;48.544;8.918;2023-08-07T06:50:25;97423.88;;;12.94;94.92
50774;BME280;36745;48.544;8.918;2023-08-07T06:53:44;97423.56;;;13.01;94.51
50774;BME280;36745;48.544;8.918;2023-08-07T06:57:04;97422.09;;;13.10;94.45
50774;BME280;36745;48.544;8.918;2023-08-07T07:00:22;97421.25;;;13.22;93.55
50774;BME280;36745;48.544;8.918;2023-08-07T07:03:41;97424.19;;;13.27;93.61
50774;BME280;36745;48.544;8.918;2023-08-07T07:07:00;97427.34;;;13.48;94.06
50774;BME280;36745;48.544;8.918;2023-08-07T07:10:20;97430.28;;;13.53;91.97
50774;BME280;36745;48.544;8.918;2023-08-07T07:13:39;97438.16;;;13.55;91.33
50774;BME280;36745;48.544;8.918;2023-08-07T07:16:59;97436.72;;;13.50;89.71
50774;BME280;36745;48.544;8.918;2023-08-07T07:20:19;97429.84;;;13.55;90.16
50774;BME280;36745;48.544;8.918;2023-08-07T07:23:38;97440.25;;;14.09;91.38
50774;BME280;36745;48.544;8.918;2023-08-07T07:26:57;97447.03;;;14.17;88.67
50774;BME280;36745;48.544;8.918;2023-08-07T07:30:15;97440.56;;;14.29;87.53
50774;BME280;36745;48.544;8.918;2023-08-07T07:33:34;97446.13;;;14.65;86.96
50774;BME280;36745;48.544;8.918;2023-08-07T07:36:54;97451.38;;;14.73;85.97
50774;BME280;36745;48.544;8.918;2023-08-07T07:40:13;97460.31;;;14.67;84.05
50774;BME280;36745;48.544;8.918;2023-08-07T07:43:32;97466.16;;;14.69;84.58
50774;BME280;36745;48.544;8.918;2023-08-07T07:46:51;97462.41;;;14.91;85.32
50774;BME280;36745;48.544;8.918;2023-08-07T07:50:10;97470.88;;;15.05;84.14
50774;BME280;36745;48.544;8.918;2023-08-07T07:53:31;97466.06;;;15.15;83.42
50774;BME280;36745;48.544;8.918;2023-08-07T07:56:50;97470.03;;;15.32;81.66
50774;BME280;36745;48.544;8.918;2023-08-07T08:00:10;97468.75;;;15.51;78.31
50774;BME280;36745;48.544;8.918;2023-08-07T08:03:31;97478.78;;;15.49;77.13
50774;BME280;36745;48.544;8.918;2023-08-07T08:06:50;97470.22;;;15.71;79.83
50774;BME280;36745;48.544;8.918;2023-08-07T08:10:09;97464.94;;;15.73;77.78
50774;BME280;36745;48.544;8.918;2023-08-07T08:13:28;97478.56;;;15.71;78.04
50774;BME280;36745;48.544;8.918;2023-08-07T08:16:47;97483.84;;;15.50;75.91
50774;BME280;36745;48.544;8.918;2023-08-07T08:20:07;97474.59;;;15.44;76.62
50774;BME280;36745;48.544;8.918;2023-08-07T08:23:26;97486.41;;;15.72;76.50
50774;BME280;36745;48.544;8.918;2023-08-07T08:26:45;97479.69;;;15.88;72.76
50774;BME280;36745;48.544;8.918;2023-08-07T08:30:05;97487.03;;;16.00;72.33
50774;BME280;36745;48.544;8.918;2023-08-07T08:33:24;97480.47;;;16.12;70.91
50774;BME280;36745;48.544;8.918;2023-08-07T08:36:43;97478.56;;;16.42;72.16
50774;BME280;36745;48.544;8.918;2023-08-07T08:40:02;97471.84;;;16.72;72.26
50774;BME280;36745;48.544;8.918;2023-08-07T08:43:22;97475.63;;;16.84;70.50
50774;BME280;36745;48.544;8.918;2023-08-07T08:46:42;97468.50;;;16.83;68.26
50774;BME280;36745;48.544;8.918;2023-08-07T08:50:06;97464.97;;;16.97;69.18
50774;BME280;36745;48.544;8.918;2023-08-07T08:53:26;97471.88;;;17.16;68.62
50774;BME280;36745;48.544;8.918;2023-08-07T08:56:45;97459.00;;;17.19;67.08
50774;BME280;36745;48.544;8.918;2023-08-07T09:00:06;97465.97;;;17.44;67.10
50774;BME280;36745;48.544;8.918;2023-08-07T09:03:34;97467.34;;;17.34;64.65
50774;BME280;36745;48.544;8.918;2023-08-07T09:06:54;97466.66;;;17.53;65.97
50774;BME280;36745;48.544;8.918;2023-08-07T09:10:14;97466.47;;;17.42;64.24
50774;BME280;36745;48.544;8.918;2023-08-07T09:13:36;97468.41;;;17.36;63.82
50774;BME280;36745;48.544;8.918;2023-08-07T09:20:18;97469.53;;;17.44;63.37
50774;BME280;36745;48.544;8.918;2023-08-07T09:23:38;97472.78;;;17.72;64.00
50774;BME280;36745;48.544;8.918;2023-08-07T09:26:58;97479.78;;;17.82;63.20
50774;BME280;36745;48.544;8.918;2023-08-07T09:30:18;97479.47;;;17.95;62.59
50774;BME280;36745;48.544;8.918;2023-08-07T09:33:38;97486.69;;;18.22;62.82
50774;BME280;36745;48.544;8.918;2023-08-07T09:36:57;97498.84;;;18.04;60.51
50774;BME280;36745;48.544;8.918;2023-08-07T09:40:18;97504.00;;;17.91;59.50
50774;BME280;36745;48.544;8.918;2023-08-07T09:43:37;97496.50;;;17.82;59.60
50774;BME280;36745;48.544;8.918;2023-08-07T09:46:56;97502.94;;;17.88;59.54
50774;BME280;36745;48.544;8.918;2023-08-07T09:50:16;97519.16;;;17.70;58.05
50774;BME280;36745;48.544;8.918;2023-08-07T09:53:38;97509.94;;;17.49;58.56
50774;BME280;36745;48.544;8.918;2023-08-07T09:56:58;97520.09;;;17.52;58.49
50774;BME280;36745;48.544;8.918;2023-08-07T10:00:17;97510.88;;;17.60;57.76
50774;BME280;36745;48.544;8.918;2023-08-07T10:03:38;97517.03;;;17.35;56.59
50774;BME280;36745;48.544;8.918;2023-08-07T10:06:57;97518.09;;;17.67;57.63
50774;BME280;36745;48.544;8.918;2023-08-07T10:10:18;97513.50;;;17.99;57.57
50774;BME280;36745;48.544;8.918;2023-08-07T10:13:37;97515.19;;;18.11;56.18
50774;BME280;36745;48.544;8.918;2023-08-07T10:16:57;97522.81;;;18.31;57.00
50774;BME280;36745;48.544;8.918;2023-08-07T10:20:16;97521.88;;;18.54;56.72
50774;BME280;36745;48.544;8.918;2023-08-07T10:23:35;97529.34;;;18.83;55.82
50774;BME280;36745;48.544;8.918;2023-08-07T10:26:56;97518.13;;;19.03;56.31
50774;BME280;36745;48.544;8.918;2023-08-07T10:30:17;97514.88;;;18.84;54.07
50774;BME280;36745;48.544;8.918;2023-08-07T10:33:38;97517.69;;;18.64;53.66
50774;BME280;36745;48.544;8.918;2023-08-07T10:36:58;97518.41;;;18.59;53.79
50774;BME280;36745;48.544;8.918;2023-08-07T10:40:17;97517.25;;;18.92;54.71
50774;BME280;36745;48.544;8.918;2023-08-07T10:43:40;97520.81;;;19.18;53.54
50774;BME280;36745;48.544;8.918;2023-08-07T10:47:00;97523.34;;;19.67;53.76
50774;BME280;36745;48.544;8.918;2023-08-07T10:50:46;97523.34;;;19.67;52.95
50774;BME280;36745;48.544;8.918;2023-08-07T10:58:02;97526.81;;;19.31;52.06
50774;BME280;36745;48.544;8.918;2023-08-07T11:01:40;97533.47;;;19.13;51.70
50774;BME280;36745;48.544;8.918;2023-08-07T11:04:59;97524.94;;;18.76;52.02
50774;BME280;36745;48.544;8.918;2023-08-07T11:08:22;97530.94;;;18.29;51.53
50774;BME280;36745;48.544;8.918;2023-08-07T11:11:43;97528.28;;;18.05;52.08
50774;BME280;36745;48.544;8.918;2023-08-07T11:15:02;97538.69;;;18.04;52.94
50774;BME280;36745;48.544;8.918;2023-08-07T11:18:22;97540.19;;;17.85;52.80
50774;BME280;36745;48.544;8.918;2023-08-07T11:21:42;97545.50;;;17.69;52.85
50774;BME280;36745;48.544;8.918;2023-08-07T11:25:01;97525.28;;;17.59;52.84
50774;BME280;36745;48.544;8.918;2023-08-07T11:28:21;97531.72;;;17.36;53.17
50774;BME280;36745;48.544;8.918;2023-08-07T11:31:40;97540.66;;;17.54;53.88
50774;BME280;36745;48.544;8.918;2023-08-07T11:34:59;97526.25;;;17.85;53.89
50774;BME280;36745;48.544;8.918;2023-08-07T11:38:32;97533.78;;;17.99;53.25
50774;BME280;36745;48.544;8.918;2023-08-07T11:41:51;97529.13;;;17.91;53.13
50774;BME280;36745;48.544;8.918;2023-08-07T11:45:11;97527.88;;;17.77;53.25
50774;BME280;36745;48.544;8.918;2023-08-07T11:48:32;97529.13;;;17.47;53.16
50774;BME280;36745;48.544;8.918;2023-08-07T11:51:52;97532.97;;;17.35;53.41
50774;BME280;36745;48.544;8.918;2023-08-07T11:55:14;97540.00;;;17.15;53.60
50774;BME280;36745;48.544;8.918;2023-08-07T11:58:35;97537.00;;;17.04;53.37
50774;BME280;36745;48.544;8.918;2023-08-07T12:01:54;97539.28;;;16.91;54.02
50774;BME280;36745;48.544;8.918;2023-08-07T12:05:13;97545.41;;;16.81;53.86
50774;BME280;36745;48.544;8.918;2023-08-07T12:08:37;97546.81;;;16.76;54.11
50774;BME280;36745;48.544;8.918;2023-08-07T12:11:57;97555.53;;;16.69;54.45
50774;BME280;36745;48.544;8.918;2023-08-07T12:15:17;97552.16;;;16.65;54.55
50774;BME280;36745;48.544;8.918;2023-08-07T12:18:37;97546.59;;;16.65;54.69
50774;BME280;36745;48.544;8.918;2023-08-07T12:21:57;97546.06;;;16.75;54.88
50774;BME280;36745;48.544;8.918;2023-08-07T12:25:16;97541.69;;;16.98;55.24
50774;BME280;36745;48.544;8.918;2023-08-07T12:28:36;97545.66;;;17.21;55.33
50774;BME280;36745;48.544;8.918;2023-08-07T12:31:55;97547.78;;;17.41;55.40
50774;BME280;36745;48.544;8.918;2023-08-07T12:35:14;97549.22;;;17.51;55.04
50774;BME280;36745;48.544;8.918;2023-08-07T12:38:34;97541.81;;;17.33;54.36
50774;BME280;36745;48.544;8.918;2023-08-07T12:41:53;97545.88;;;17.32;54.66
50774;BME280;36745;48.544;8.918;2023-08-07T12:45:12;97547.88;;;17.32;54.64
50774;BME280;36745;48.544;8.918;2023-08-07T12:48:32;97552.00;;;17.22;54.64
50774;BME280;36745;48.544;8.918;2023-08-07T12:51:52;97556.88;;;17.12;54.70
50774;BME280;36745;48.544;8.918;2023-08-07T12:55:12;97554.06;;;16.97;55.06
50774;BME280;36745;48.544;8.918;2023-08-07T12:58:30;97550.34;;;17.00;54.94
50774;BME280;36745;48.544;8.918;2023-08-07T13:01:49;97561.97;;;17.13;55.20
50774;BME280;36745;48.544;8.918;2023-08-07T13:05:09;97560.84;;;17.35;55.44
50774;BME280;36745;48.544;8.918;2023-08-07T13:08:29;97559.50;;;17.45;55.00
50774;BME280;36745;48.544;8.918;2023-08-07T13:11:49;97555.47;;;17.46;54.66
50774;BME280;36745;48.544;8.918;2023-08-07T13:15:11;97563.53;;;17.44;54.92
50774;BME280;36745;48.544;8.918;2023-08-07T13:18:31;97555.06;;;17.24;54.60
50774;BME280;36745;48.544;8.918;2023-08-07T13:21:50;97565.44;;;17.08;54.70
50774;BME280;36745;48.544;8.918;2023-08-07T13:25:11;97562.22;;;16.86;55.29
50774;BME280;36745;48.544;8.918;2023-08-07T13:28:30;97570.97;;;16.94;55.52
50774;BME280;36745;48.544;8.918;2023-08-07T13:31:49;97564.75;;;16.99;55.69
50774;BME280;36745;48.544;8.918;2023-08-07T13:35:08;97562.44;;;16.97;56.17
50774;BME280;36745;48.544;8.918;2023-08-07T13:38:28;97558.41;;;17.13;56.11
50774;BME280;36745;48.544;8.918;2023-08-07T13:41:47;97559.28;;;17.34;56.02
50774;BME280;36745;48.544;8.918;2023-08-07T13:45:06;97562.13;;;17.63;55.94
50774;BME280;36745;48.544;8.918;2023-08-07T13:48:26;97558.16;;;17.84;55.49
50774;BME280;36745;48.544;8.918;2023-08-07T13:51:46;97546.94;;;18.14;55.21
50774;BME280;36745;48.544;8.918;2023-08-07T13:55:06;97557.44;;;18.39;55.19
50774;BME280;36745;48.544;8.918;2023-08-07T13:58:27;97541.81;;;18.47;54.87
50774;BME280;36745;48.544;8.918;2023-08-07T14:01:46;97540.72;;;18.59;54.43
50774;BME280;36745;48.544;8.918;2023-08-07T14:05:06;97546.16;;;18.68;54.04
50774;BME280;36745;48.544;8.918;2023-08-07T14:08:25;97554.19;;;18.81;52.57
50774;BME280;36745;48.544;8.918;2023-08-07T14:11:44;97550.34;;;18.58;52.33
50774;BME280;36745;48.544;8.918;2023-08-07T14:15:05;97556.72;;;18.59;52.79
50774;BME280;36745;48.544;8.918;2023-08-07T14:18:24;97557.22;;;18.77;52.83
50774;BME280;36745;48.544;8.918;2023-08-07T14:21:43;97543.94;;;18.93;52.52
50774;BME280;36745;48.544;8.918;2023-08-07T14:25:02;97562.66;;;18.86;52.50
50774;BME280;36745;48.544;8.918;2023-08-07T14:28:22;97568.50;;;18.68;52.55
50774;BME280;36745;48.544;8.918;2023-08-07T14:31:41;97582.00;;;18.35;51.66
50774;BME280;36745;48.544;8.918;2023-08-07T14:35:25;97589.47;;;18.09;52.07
50774;BME280;36745;48.544;8.918;2023-08-07T14:38:45;97596.03;;;18.06;52.74
50774;BME280;36745;48.544;8.918;2023-08-07T14:42:04;97585.34;;;18.04;52.89
50774;BME280;36745;48.544;8.918;2023-08-07T14:45:23;97594.31;;;17.93;52.74
50774;BME280;36745;48.544;8.918;2023-08-07T14:48:43;97589.97;;;17.92;52.99
50774;BME280;36745;48.544;8.918;2023-08-07T14:52:02;97586.78;;;17.99;53.29
50774;BME280;36745;48.544;8.918;2023-08-07T14:55:21;97577.19;;;18.00;53.24
50774;BME280;36745;48.544;8.918;2023-08-07T14:58:40;97587.00;;;17.96;53.36
50774;BME280;36745;48.544;8.918;2023-08-07T15:01:59;97572.00;;;17.93;53.34
50774;BME280;36745;48.544;8.918;2023-08-07T15:05:17;97576.00;;;18.07;53.70
50774;BME280;36745;48.544;8.918;2023-08-07T15:08:37;97571.38;;;18.19;53.67
50774;BME280;36745;48.544;8.918;2023-08-07T15:11:57;97560.78;;;18.23;53.49
50774;BME280;36745;48.544;8.918;2023-08-07T15:15:16;97562.19;;;18.33;53.42
50774;BME280;36745;48.544;8.918;2023-08-07T15:18:35;97556.78;;;18.64;53.35
50774;BME280;36745;48.544;8.918;2023-08-07T15:21:54;97565.00;;;18.73;52.76
50774;BME280;36745;48.544;8.918;2023-08-07T15:25:13;97555.09;;;18.93;52.75
50774;BME280;36745;48.544;8.918;2023-08-07T15:28:33;97554.69;;;19.00;52.13
50774;BME280;36745;48.544;8.918;2023-08-07T15:31:51;97559.78;;;18.81;51.52
50774;BME280;36745;48.544;8.918;2023-08-07T15:35:11;97567.00;;;18.67;51.85
50774;BME280;36745;48.544;8.918;2023-08-07T15:38:30;97571.34;;;18.54;51.33
50774;BME280;36745;48.544;8.918;2023-08-07T15:41:49;97565.31;;;18.55;51.83
50774;BME280;36745;48.544;8.918;2023-08-07T15:45:08;97566.91;;;18.62;51.42
50774;BME280;36745;48.544;8.918;2023-08-07T15:48:27;97561.63;;;18.49;51.20
50774;BME280;36745;48.544;8.918;2023-08-07T15:51:47;97561.84;;;18.45;51.57
50774;BME280;36745;48.544;8.918;2023-08-07T15:55:07;97563.59;;;18.43;51.63
50774;BME280;36745;48.544;8.918;2023-08-07T15:58:26;97565.97;;;18.30;51.77
50774;BME280;36745;48.544;8.918;2023-08-07T16:01:45;97558.38;;;18.51;52.08
50774;BME280;36745;48.544;8.918;2023-08-07T16:05:04;97553.72;;;18.62;51.68
50774;BME280;36745;48.544;8.918;2023-08-07T16:08:23;97565.88;;;18.59;51.66
50774;BME280;36745;48.544;8.918;2023-08-07T16:11:42;97554.91;;;18.56;51.73
50774;BME280;36745;48.544;8.918;2023-08-07T16:15:29;97551.16;;;18.44;51.55
50774;BME280;36745;48.544;8.918;2023-08-07T16:18:48;97554.19;;;18.40;51.77
50774;BME280;36745;48.544;8.918;2023-08-07T16:22:07;97555.75;;;18.47;52.00
50774;BME280;36745;48.544;8.918;2023-08-07T16:25:26;97558.94;;;18.55;52.06
50774;BME280;36745;48.544;8.918;2023-08-07T16:28:45;97550.25;;;18.67;52.14
50774;BME280;36745;48.544;8.918;2023-08-07T16:32:04;97561.25;;;18.56;51.01
50774;BME280;36745;48.544;8.918;2023-08-07T16:35:25;97557.19;;;18.57;51.73
50774;BME280;36745;48.544;8.918;2023-08-07T16:38:44;97550.94;;;18.62;51.64
50774;BME280;36745;48.544;8.918;2023-08-07T16:42:06;97556.22;;;18.60;51.48
50774;BME280;36745;48.544;8.918;2023-08-07T16:45:26;97549.47;;;18.52;51.14
50774;BME280;36745;48.544;8.918;2023-08-07T16:48:45;97560.25;;;18.39;50.94
50774;BME280;36745;48.544;8.918;2023-08-07T16:52:05;97563.28;;;18.21;50.72
50774;BME280;36745;48.544;8.918;2023-08-07T16:55:24;97555.97;;;18.09;51.26
50774;BME280;36745;48.544;8.918;2023-08-07T16:58:43;97561.84;;;18.11;51.36
50774;BME280;36745;48.544;8.918;2023-08-07T17:02:07;97562.53;;;18.06;51.70
50774;BME280;36745;48.544;8.918;2023-08-07T17:05:26;97578.31;;;18.09;51.50
50774;BME280;36745;48.544;8.918;2023-08-07T17:08:47;97575.81;;;18.11;51.86
50774;BME280;36745;48.544;8.918;2023-08-07T17:12:10;97568.00;;;18.15;51.87
50774;BME280;36745;48.544;8.918;2023-08-07T17:15:30;97581.75;;;18.18;52.01
50774;BME280;36745;48.544;8.918;2023-08-07T17:18:49;97573.88;;;18.17;52.10
50774;BME280;36745;48.544;8.918;2023-08-07T17:22:08;97577.13;;;18.15;52.00
50774;BME280;36745;48.544;8.918;2023-08-07T17:25:27;97580.25;;;18.02;51.85
50774;BME280;36745;48.544;8.918;2023-08-07T17:28:46;97575.25;;;18.07;52.02
50774;BME280;36745;48.544;8.918;2023-08-07T17:32:05;97579.38;;;18.11;52.01
50774;BME280;36745;48.544;8.918;2023-08-07T17:35:25;97572.94;;;18.05;52.18
50774;BME280;36745;48.544;8.918;2023-08-07T17:38:44;97576.38;;;18.15;52.18
50774;BME280;36745;48.544;8.918;2023-08-07T17:42:03;97570.22;;;18.11;52.15
50774;BME280;36745;48.544;8.918;2023-08-07T17:45:22;97575.03;;;18.10;52.47